Time;durP1;ratioP1;P1;durP2;ratioP2;P2;SDS_P1;SDS_P2;PMS_P1;PMS_P2;Temp;Humidity;BMP_temperature;BMP_pressure;BME280_temperature;BME280_humidity;BME280_pressure;Samples;Min_cycle;Max_cycle;Signal;HPM_P1;HPM_P2
2023/08/11 00:02:33;;;;;;;3.30;1.88;;;;;;;16.86;100.00;101218.53;6052495;29;20968;-93
2023/08/11 00:05:41;;;;;;;5.05;2.05;;;;;;;16.84;100.00;101218.66;6043633;29;20442;-93
2023/08/11 00:08:43;;;;;;;5.05;2.03;;;;;;;16.81;100.00;101216.34;6060979;29;20049;-92
2023/08/11 00:11:45;;;;;;;3.63;1.95;;;;;;;16.83;100.00;101216.22;6048060;29;20570;-93
2023/08/11 00:14:48;;;;;;;3.92;1.98;;;;;;;16.83;100.00;101218.84;6047715;29;20135;-92
2023/08/11 00:17:52;;;;;;;3.17;2.17;;;;;;;16.83;100.00;101221.44;6068216;29;20044;-92
2023/08/11 00:20:54;;;;;;;4.13;2.00;;;;;;;16.82;100.00;101219.78;6067932;29;20040;-92
2023/08/11 00:23:56;;;;;;;5.25;2.40;;;;;;;16.79;100.00;101226.97;6061710;29;20040;-92
2023/08/11 00:26:58;;;;;;;3.25;1.85;;;;;;;16.79;100.00;101224.38;6057929;29;20052;-94
2023/08/11 00:30:01;;;;;;;4.38;1.85;;;;;;;16.80;100.00;101225.19;6068321;29;20040;-92
2023/08/11 00:33:03;;;;;;;3.33;1.80;;;;;;;16.79;100.00;101228.75;6065357;29;20495;-93
2023/08/11 00:36:05;;;;;;;6.38;2.00;;;;;;;16.78;100.00;101227.94;6038372;29;20082;-93
2023/08/11 00:39:07;;;;;;;4.28;2.00;;;;;;;16.78;100.00;101234.94;6045022;29;20063;-93
2023/08/11 00:42:13;;;;;;;3.22;2.00;;;;;;;16.78;100.00;101227.09;6040144;29;20216;-93
2023/08/11 00:45:16;;;;;;;5.35;2.08;;;;;;;16.78;100.00;101230.53;6047813;29;20049;-93
2023/08/11 00:48:21;;;;;;;4.13;2.03;;;;;;;16.78;100.00;101220.09;6068973;29;20681;-93
2023/08/11 00:51:24;;;;;;;6.13;1.85;;;;;;;16.77;100.00;101226.25;6043974;29;20135;-93
2023/08/11 00:54:27;;;;;;;5.55;1.98;;;;;;;16.78;100.00;101224.50;6039190;29;20507;-92
2023/08/11 00:57:29;;;;;;;2.20;1.90;;;;;;;16.76;100.00;101227.22;6036590;29;20068;-93
2023/08/11 01:00:31;;;;;;;3.13;2.42;;;;;;;16.76;100.00;101221.16;6045735;29;20064;-93
2023/08/11 01:03:34;;;;;;;4.72;1.80;;;;;;;16.77;100.00;101220.22;6062254;29;20044;-93
2023/08/11 01:06:47;;;;;;;4.50;2.10;;;;;;;16.75;100.00;101219.53;6069911;29;20048;-92
2023/08/11 01:10:06;;;;;;;11.48;2.63;;;;;;;16.75;100.00;101217.72;6049408;29;20497;-92
2023/08/11 01:13:18;;;;;;;4.00;1.90;;;;;;;16.73;100.00;101211.81;6033774;29;20128;-92
2023/08/11 01:16:23;;;;;;;5.90;2.17;;;;;;;16.73;100.00;101211.00;6054450;29;20052;-93
2023/08/11 01:19:32;;;;;;;4.72;1.92;;;;;;;16.70;100.00;101209.50;6046366;29;20064;-93
2023/08/11 01:22:36;;;;;;;4.57;2.17;;;;;;;16.69;100.00;101214.88;6072468;29;20049;-93
2023/08/11 01:25:38;;;;;;;4.55;1.85;;;;;;;16.69;100.00;101213.06;6058512;29;20049;-93
2023/08/11 01:28:41;;;;;;;3.85;2.00;;;;;;;16.68;100.00;101215.84;6063165;29;20483;-93
2023/08/11 01:31:43;;;;;;;4.10;1.88;;;;;;;16.67;100.00;101214.19;6055804;29;20072;-93
2023/08/11 01:34:46;;;;;;;5.88;2.08;;;;;;;16.67;100.00;101215.03;6050760;29;20060;-93
2023/08/11 01:37:49;;;;;;;4.57;2.00;;;;;;;16.66;100.00;101210.75;6073607;29;20048;-93
2023/08/11 01:40:51;;;;;;;3.58;2.40;;;;;;;16.65;100.00;101205.69;6055599;29;20068;-92
2023/08/11 01:43:53;;;;;;;3.95;2.10;;;;;;;16.64;100.00;101211.84;6040637;29;20051;-93
2023/08/11 01:46:57;;;;;;;4.18;1.95;;;;;;;16.63;100.00;101210.22;6071177;29;20048;-93
2023/08/11 01:50:00;;;;;;;7.43;2.30;;;;;;;16.63;100.00;101212.84;6072409;29;20040;-93
2023/08/11 01:53:02;;;;;;;7.20;2.42;;;;;;;16.63;100.00;101215.44;6072905;29;20044;-93
2023/08/11 01:56:06;;;;;;;6.15;2.00;;;;;;;16.62;100.00;101200.72;6040532;29;20072;-92
2023/08/11 01:59:15;;;;;;;3.70;2.13;;;;;;;16.60;100.00;101202.69;6057144;29;20052;-93
2023/08/11 02:02:18;;;;;;;5.28;2.10;;;;;;;16.59;100.00;101204.44;6054456;29;20085;-92
2023/08/11 02:05:20;;;;;;;4.30;2.08;;;;;;;16.57;100.00;101202.00;6056840;29;20048;-93
2023/08/11 02:08:21;;;;;;;5.80;2.08;;;;;;;16.58;100.00;101200.19;6062507;29;20516;-93
2023/08/11 02:11:23;;;;;;;2.50;1.88;;;;;;;16.57;100.00;101203.75;6074874;29;20040;-95
2023/08/11 02:14:25;;;;;;;4.90;2.17;;;;;;;16.57;100.00;101199.38;6057577;29;20051;-93
2023/08/11 02:17:27;;;;;;;2.75;2.05;;;;;;;16.57;100.00;101202.00;6056072;29;20051;-92
2023/08/11 02:20:32;;;;;;;7.90;2.40;;;;;;;16.57;100.00;101194.16;6079012;29;20067;-96
2023/08/11 02:23:34;;;;;;;7.60;2.25;;;;;;;16.57;100.00;101191.53;6055507;29;20040;-96
2023/08/11 02:26:37;;;;;;;4.20;2.00;;;;;;;16.56;100.00;101194.28;6064488;29;20138;-93
2023/08/11 02:29:39;;;;;;;3.38;2.28;;;;;;;16.57;100.00;101188.91;6034746;29;20057;-92
2023/08/11 02:32:41;;;;;;;5.38;1.83;;;;;;;16.57;100.00;101188.91;6038330;29;20048;-93
2023/08/11 02:35:45;;;;;;;4.80;2.20;;;;;;;16.57;100.00;101186.31;6073654;29;20056;-92
2023/08/11 02:38:52;;;;;;;3.85;2.40;;;;;;;16.59;100.00;101180.91;6075045;29;20103;-93
2023/08/11 02:41:55;;;;;;;4.20;2.22;;;;;;;16.56;100.00;101178.59;6039607;29;20044;-93
2023/08/11 02:44:57;;;;;;;6.40;2.47;;;;;;;16.51;100.00;101175.59;6071495;29;20054;-93
2023/08/11 02:47:59;;;;;;;4.93;2.15;;;;;;;16.47;100.00;101182.91;6053264;29;20421;-93
2023/08/11 02:51:02;;;;;;;7.53;2.40;;;;;;;16.45;100.00;101181.41;6086896;29;20597;-95
2023/08/11 02:54:05;;;;;;;6.55;2.47;;;;;;;16.44;100.00;101184.97;6047696;29;20057;-92
2023/08/11 02:57:07;;;;;;;5.22;2.17;;;;;;;16.44;100.00;101182.34;6064684;29;20055;-92
2023/08/11 03:00:15;;;;;;;2.40;2.00;;;;;;;16.43;100.00;101181.53;6069435;29;20119;-93
2023/08/11 03:03:17;;;;;;;9.75;2.65;;;;;;;16.42;100.00;101179.06;6073796;29;20507;-93
2023/08/11 03:06:19;;;;;;;3.28;2.35;;;;;;;16.41;100.00;101177.44;6056883;29;20084;-93
2023/08/11 03:09:21;;;;;;;3.53;2.40;;;;;;;16.39;100.00;101177.56;6056777;29;20040;-93
2023/08/11 03:12:23;;;;;;;2.63;2.10;;;;;;;16.35;100.00;101171.81;6072824;29;20051;-93
2023/08/11 03:15:26;;;;;;;6.70;2.13;;;;;;;16.22;100.00;101175.69;6074064;29;20136;-93
2023/08/11 03:18:28;;;;;;;4.85;2.50;;;;;;;16.07;100.00;101177.94;6073763;29;20052;-92
2023/08/11 03:21:33;;;;;;;5.80;2.28;;;;;;;15.89;100.00;101180.44;6037461;29;20057;-92
2023/08/11 03:24:34;;;;;;;7.78;2.47;;;;;;;15.71;100.00;101178.53;6032358;29;20049;-92
2023/08/11 03:27:39;;;;;;;2.63;1.85;;;;;;;15.56;100.00;101182.50;6061235;29;20135;-92
2023/08/11 03:30:43;;;;;;;6.85;2.72;;;;;;;15.39;100.00;101186.59;6036067;29;20124;-93
2023/08/11 03:33:45;;;;;;;4.15;1.85;;;;;;;15.27;100.00;101196.34;6073217;29;20052;-92
2023/08/11 03:36:48;;;;;;;5.80;2.60;;;;;;;15.17;100.00;101192.88;6052275;29;20175;-93
2023/08/11 03:39:50;;;;;;;5.78;2.05;;;;;;;15.08;100.00;101197.13;6056467;29;20056;-91
2023/08/11 03:42:53;;;;;;;4.00;2.50;;;;;;;15.00;100.00;101199.56;6058327;29;20072;-92
2023/08/11 03:45:56;;;;;;;4.80;2.20;;;;;;;14.94;100.00;101199.31;6055983;29;20432;-92
2023/08/11 03:48:58;;;;;;;2.85;1.92;;;;;;;14.88;100.00;101198.06;6056040;29;20081;-92
2023/08/11 03:52:00;;;;;;;2.35;2.10;;;;;;;14.83;100.00;101201.06;6056261;29;20514;-92
2023/08/11 03:55:03;;;;;;;4.25;2.60;;;;;;;14.78;100.00;101203.22;6072894;29;20052;-92
2023/08/11 03:58:06;;;;;;;4.43;2.10;;;;;;;14.73;100.00;101204.56;6056024;29;20071;-92
2023/08/11 04:01:08;;;;;;;3.67;2.20;;;;;;;14.70;100.00;101204.84;6055871;29;20051;-92
2023/08/11 04:04:10;;;;;;;4.80;2.28;;;;;;;14.67;100.00;101208.53;6055882;29;20044;-92
2023/08/11 04:07:12;;;;;;;8.25;2.08;;;;;;;14.65;100.00;101216.47;6054709;29;20472;-92
2023/08/11 04:10:15;;;;;;;4.43;2.47;;;;;;;14.64;100.00;101219.22;6039144;29;20467;-92
2023/08/11 04:13:17;;;;;;;4.68;2.35;;;;;;;14.64;100.00;101227.03;6058217;29;20051;-92
2023/08/11 04:16:20;;;;;;;4.20;2.30;;;;;;;14.63;100.00;101230.56;6082387;29;20128;-92
2023/08/11 04:19:21;;;;;;;6.30;2.20;;;;;;;14.63;100.00;101227.97;6048593;29;20111;-92
2023/08/11 04:22:23;;;;;;;5.93;2.67;;;;;;;14.63;100.00;101234.03;6062566;29;20047;-92
2023/08/11 04:25:40;;;;;;;6.88;2.72;;;;;;;14.61;100.00;101227.31;6064850;29;20053;-92
2023/08/11 04:28:43;;;;;;;9.85;2.28;;;;;;;14.57;100.00;101223.28;6052451;29;20060;-92
2023/08/11 04:31:48;;;;;;;4.93;2.20;;;;;;;14.56;100.00;101226.88;6056138;29;20049;-92
2023/08/11 04:34:52;;;;;;;2.55;1.88;;;;;;;14.56;100.00;101224.25;6055031;29;20152;-92
2023/08/11 04:37:54;;;;;;;4.30;2.15;;;;;;;14.55;100.00;101218.19;6042780;29;20053;-91
2023/08/11 04:40:58;;;;;;;3.45;2.03;;;;;;;14.56;100.00;101219.06;6046322;29;20044;-92
2023/08/11 04:44:01;;;;;;;3.00;2.20;;;;;;;14.56;100.00;101225.09;6053022;29;20045;-92
2023/08/11 04:47:04;;;;;;;7.10;2.30;;;;;;;14.58;100.00;101217.13;6055350;29;20411;-92
2023/08/11 04:50:11;;;;;;;3.20;2.20;;;;;;;14.60;100.00;101217.81;6072066;29;20411;-91
2023/08/11 04:53:13;;;;;;;3.92;2.40;;;;;;;14.61;100.00;101227.31;6049987;29;20507;-92
2023/08/11 04:56:15;;;;;;;3.28;2.50;;;;;;;14.61;100.00;101219.47;6058269;29;20052;-92
2023/08/11 04:59:18;;;;;;;3.83;2.33;;;;;;;14.60;100.00;101226.44;6056836;29;20044;-92
2023/08/11 05:02:19;;;;;;;3.25;2.13;;;;;;;14.61;100.00;101224.69;6068564;29;20487;-92
2023/08/11 05:05:21;;;;;;;4.75;2.17;;;;;;;14.63;100.00;101227.97;6068830;29;20056;-91
2023/08/11 05:08:23;;;;;;;3.95;2.22;;;;;;;14.65;100.00;101223.47;6059572;29;20053;-92
2023/08/11 05:11:26;;;;;;;3.13;2.20;;;;;;;14.67;100.00;101228.56;6045435;29;20161;-92
2023/08/11 05:14:31;;;;;;;5.97;2.85;;;;;;;14.68;100.00;101222.38;6077093;29;20167;-92
2023/08/11 05:17:33;;;;;;;3.33;2.40;;;;;;;14.71;100.00;101235.13;6055708;29;20048;-92
2023/08/11 05:20:35;;;;;;;4.97;2.63;;;;;;;14.76;100.00;101240.81;6076331;29;20045;-93
2023/08/11 05:23:37;;;;;;;5.93;2.85;;;;;;;14.79;100.00;101232.72;6075629;29;20087;-92
2023/08/11 05:26:39;;;;;;;3.67;2.75;;;;;;;14.83;100.00;101234.09;6077187;29;20131;-92
2023/08/11 05:29:45;;;;;;;4.95;2.45;;;;;;;14.86;100.00;101242.50;6075054;29;20512;-92
2023/08/11 05:32:46;;;;;;;4.50;2.30;;;;;;;14.89;100.00;101230.16;6071333;29;20052;-92
2023/08/11 05:35:49;;;;;;;5.00;2.50;;;;;;;14.93;100.00;101239.34;6072114;29;20045;-92
2023/08/11 05:38:51;;;;;;;4.47;2.28;;;;;;;14.98;100.00;101239.78;6049432;29;20048;-92
2023/08/11 05:41:53;;;;;;;2.60;2.08;;;;;;;15.00;100.00;101228.25;6066758;29;20053;-92
2023/08/11 05:44:55;;;;;;;5.93;2.65;;;;;;;15.04;100.00;101228.81;6075428;29;20048;-92
2023/08/11 05:47:56;;;;;;;3.20;2.28;;;;;;;15.06;100.00;101230.34;6076485;29;20056;-92
2023/08/11 05:50:58;;;;;;;4.28;2.53;;;;;;;15.12;100.00;101239.41;6049080;29;20052;-92
2023/08/11 05:54:01;;;;;;;3.20;2.50;;;;;;;15.17;100.00;101242.44;6067552;29;20624;-92
2023/08/11 05:57:04;;;;;;;2.95;2.28;;;;;;;15.22;100.00;101244.66;6076506;29;20527;-93
2023/08/11 06:00:06;;;;;;;5.13;2.30;;;;;;;15.28;100.00;101242.34;6070420;29;20044;-92
2023/08/11 06:03:17;;;;;;;4.82;2.70;;;;;;;15.34;100.00;101240.97;6073290;29;20056;-92
2023/08/11 06:06:18;;;;;;;5.35;2.28;;;;;;;15.40;100.00;101239.59;6040803;29;20468;-93
2023/08/11 06:09:22;;;;;;;3.85;2.40;;;;;;;15.45;100.00;101245.22;6070729;29;20045;-92
2023/08/11 06:12:24;;;;;;;3.30;2.40;;;;;;;15.50;100.00;101248.25;6064789;29;20357;-92
2023/08/11 06:15:26;;;;;;;4.43;2.70;;;;;;;15.57;100.00;101254.59;6052445;29;20081;-92
2023/08/11 06:18:28;;;;;;;7.15;2.20;;;;;;;15.64;100.00;101245.25;6066691;29;20081;-92
2023/08/11 06:21:30;;;;;;;4.55;2.60;;;;;;;15.73;100.00;101235.00;6058342;29;20259;-92
2023/08/11 06:24:33;;;;;;;7.28;3.50;;;;;;;15.80;100.00;101233.47;6075193;29;20139;-93
2023/08/11 06:27:35;;;;;;;2.80;2.25;;;;;;;15.89;100.00;101236.09;6047205;29;20049;-93
2023/08/11 06:30:37;;;;;;;3.90;2.25;;;;;;;15.97;100.00;101226.75;6074812;29;20067;-93
2023/08/11 06:33:39;;;;;;;3.55;2.33;;;;;;;16.05;100.00;101221.63;6074650;29;20503;-92
2023/08/11 06:36:41;;;;;;;3.38;2.58;;;;;;;16.12;100.00;101218.34;6073402;29;20049;-92
2023/08/11 06:39:43;;;;;;;5.80;2.60;;;;;;;16.21;100.00;101214.06;6078012;29;20081;-93
2023/08/11 06:42:45;;;;;;;4.45;2.40;;;;;;;16.28;100.00;101207.31;6058383;29;20525;-92
2023/08/11 06:45:49;;;;;;;3.38;2.28;;;;;;;16.40;100.00;101217.56;6065033;29;20045;-93
2023/08/11 06:48:50;;;;;;;4.43;2.58;;;;;;;16.49;100.00;101214.94;6052200;29;20450;-93
2023/08/11 06:51:52;;;;;;;4.50;2.50;;;;;;;16.62;100.00;101216.41;6071088;29;20132;-93
2023/08/11 06:54:54;;;;;;;3.78;2.50;;;;;;;16.69;100.00;101205.22;6062930;29;20116;-93
2023/08/11 06:57:56;;;;;;;2.38;2.13;;;;;;;16.76;100.00;101206.28;6057246;29;20044;-92
2023/08/11 07:00:59;;;;;;;3.67;1.90;;;;;;;16.83;100.00;101205.75;6074439;29;20115;-92
2023/08/11 07:04:00;;;;;;;4.03;2.35;;;;;;;16.86;100.00;101197.63;6073584;29;20053;-92
2023/08/11 07:07:03;;;;;;;5.85;2.45;;;;;;;16.95;100.00;101212.44;6074515;29;20499;-93
2023/08/11 07:10:05;;;;;;;6.55;2.75;;;;;;;17.05;100.00;101210.59;6057097;29;20048;-92
2023/08/11 07:13:08;;;;;;;2.92;2.00;;;;;;;17.13;100.00;101208.06;6073827;29;20538;-93
2023/08/11 07:16:09;;;;;;;4.25;2.10;;;;;;;17.23;100.00;101208.81;6047279;29;20080;-92
2023/08/11 07:19:12;;;;;;;3.78;1.90;;;;;;;17.32;100.00;101209.75;6073570;29;20080;-93
2023/08/11 07:22:17;;;;;;;4.10;1.92;;;;;;;17.42;100.00;101202.63;6042802;29;20507;-92
2023/08/11 07:25:19;;;;;;;3.88;2.30;;;;;;;17.49;100.00;101191.56;6067340;29;20440;-92
2023/08/11 07:28:21;;;;;;;2.45;2.10;;;;;;;17.56;100.00;101188.19;6044476;29;20056;-92
2023/08/11 07:31:23;;;;;;;3.17;2.20;;;;;;;17.59;100.00;101193.16;6072563;29;20040;-93
2023/08/11 07:34:25;;;;;;;2.60;1.80;;;;;;;17.65;100.00;101192.53;6066679;29;20120;-93
2023/08/11 07:37:28;;;;;;;2.35;1.70;;;;;;;17.74;100.00;101193.44;6027139;29;20052;-93
2023/08/11 07:40:30;;;;;;;3.08;1.75;;;;;;;17.82;100.00;101193.50;6064957;29;20041;-93
2023/08/11 07:43:32;;;;;;;2.30;1.67;;;;;;;17.85;100.00;101195.81;6073480;29;20047;-92
2023/08/11 07:46:34;;;;;;;3.40;1.70;;;;;;;17.90;100.00;101200.59;6049386;29;20555;-92
2023/08/11 07:49:36;;;;;;;4.05;1.98;;;;;;;17.97;100.00;101192.97;6042327;29;20099;-93
2023/08/11 07:52:38;;;;;;;2.03;1.73;;;;;;;18.03;100.00;101203.63;6063559;29;20419;-93
2023/08/11 07:55:41;;;;;;;1.98;1.55;;;;;;;18.08;100.00;101196.13;6064838;29;20092;-93
2023/08/11 07:58:57;;;;;;;2.22;1.60;;;;;;;18.17;100.00;101193.59;6277812;28;20403;-93
2023/08/11 08:01:59;;;;;;;1.50;1.30;;;;;;;18.30;100.00;101194.00;6252259;28;20038;-93
2023/08/11 08:05:04;;;;;;;1.95;1.33;;;;;;;18.38;100.00;101191.41;6259954;28;20345;-93
2023/08/11 08:08:14;;;;;;;3.42;1.40;;;;;;;18.45;100.00;101191.63;6263337;28;20267;-93
2023/08/11 08:11:15;;;;;;;2.13;1.50;;;;;;;18.51;100.00;101188.38;6253371;28;20128;-93
2023/08/11 08:14:18;;;;;;;3.47;1.50;;;;;;;18.58;100.00;101191.19;6261697;28;20130;-93
2023/08/11 08:17:20;;;;;;;2.83;1.70;;;;;;;18.66;100.00;101184.19;6253985;28;20041;-93
2023/08/11 08:20:22;;;;;;;1.70;1.60;;;;;;;18.77;100.00;101184.91;6258302;28;20061;-93
2023/08/11 08:23:24;;;;;;;1.55;1.42;;;;;;;18.83;100.00;101189.50;6249955;28;20045;-93
2023/08/11 08:26:26;;;;;;;3.75;1.80;;;;;;;18.91;100.00;101193.00;6257036;28;20060;-93
2023/08/11 08:29:28;;;;;;;3.13;1.50;;;;;;;19.01;100.00;101184.97;6237156;28;20056;-92
2023/08/11 08:32:30;;;;;;;3.10;1.88;;;;;;;19.13;100.00;101190.75;6254692;28;20060;-93
2023/08/11 08:35:33;;;;;;;4.78;1.42;;;;;;;19.26;100.00;101188.47;6243050;28;20252;-92
2023/08/11 08:38:36;;;;;;;1.40;1.30;;;;;;;19.33;100.00;101183.41;6260693;28;20075;-93
2023/08/11 08:41:44;;;;;;;1.45;1.35;;;;;;;19.42;100.00;101179.78;6238903;28;20041;-93
2023/08/11 08:44:48;;;;;;;3.08;1.20;;;;;;;19.50;100.00;101176.34;6258402;28;20649;-93
2023/08/11 08:47:52;;;;;;;3.20;1.40;;;;;;;19.61;100.00;101175.22;6260301;28;20600;-92
2023/08/11 08:50:55;;;;;;;1.88;1.40;;;;;;;19.71;100.00;101175.91;6261109;28;20159;-92
2023/08/11 08:53:57;;;;;;;1.58;1.30;;;;;;;19.81;100.00;101178.34;6259559;28;20045;-92
2023/08/11 08:57:01;;;;;;;1.85;1.45;;;;;;;19.89;100.00;101175.72;6257091;28;20041;-93
2023/08/11 09:00:03;;;;;;;1.70;1.13;;;;;;;19.92;100.00;101167.47;6258492;28;20163;-92
2023/08/11 09:03:05;;;;;;;1.20;1.00;;;;;;;19.97;100.00;101163.38;6247500;28;20487;-93
2023/08/11 09:06:08;;;;;;;2.03;1.20;;;;;;;20.07;100.00;101160.56;6258575;28;20040;-92
2023/08/11 09:09:10;;;;;;;1.30;1.20;;;;;;;20.23;100.00;101157.06;6249797;28;20034;-92
2023/08/11 09:12:12;;;;;;;5.50;1.25;;;;;;;20.31;100.00;101164.94;6219004;28;20534;-92
2023/08/11 09:15:15;;;;;;;2.63;1.30;;;;;;;20.41;100.00;101160.28;6226942;28;20178;-92
2023/08/11 09:18:17;;;;;;;3.55;1.40;;;;;;;20.41;100.00;101157.66;6239730;28;20503;-92
2023/08/11 09:21:23;;;;;;;2.92;1.25;;;;;;;20.55;100.00;101152.72;6220946;28;20054;-92
2023/08/11 09:24:28;;;;;;;3.22;1.40;;;;;;;20.62;100.00;101148.38;6229818;28;20049;-93
2023/08/11 09:27:31;;;;;;;1.90;1.17;;;;;;;20.72;100.00;101153.44;6241433;28;20049;-92
2023/08/11 09:30:33;;;;;;;4.38;1.20;;;;;;;20.90;100.00;101153.19;6219161;28;20049;-92
2023/08/11 09:33:35;;;;;;;1.27;1.10;;;;;;;21.02;100.00;101151.81;6238936;28;20056;-93
2023/08/11 09:36:37;;;;;;;2.40;1.23;;;;;;;21.12;100.00;101149.78;6241209;28;20041;-92
2023/08/11 09:39:41;;;;;;;1.73;1.00;;;;;;;21.19;100.00;101145.44;6240793;28;20053;-92
2023/08/11 09:42:44;;;;;;;5.20;1.30;;;;;;;21.24;100.00;101144.88;6242823;28;20042;-92
2023/08/11 09:45:46;;;;;;;2.22;1.25;;;;;;;21.32;100.00;101142.22;6225111;28;20056;-92
2023/08/11 09:48:48;;;;;;;1.60;1.40;;;;;;;21.40;100.00;101146.63;6230350;28;20528;-92
2023/08/11 09:51:58;;;;;;;1.67;1.20;;;;;;;21.51;100.00;101143.56;6230660;28;20124;-92
2023/08/11 09:55:03;;;;;;;1.58;1.42;;;;;;;21.64;100.00;101141.16;6231393;28;20045;-92
2023/08/11 09:58:08;;;;;;;4.80;1.55;;;;;;;21.71;100.00;101142.09;6215380;28;20050;-93
2023/08/11 10:01:12;;;;;;;2.38;1.40;;;;;;;21.82;100.00;101142.63;6225797;28;20080;-92
2023/08/11 10:04:56;;;;;;;3.05;1.88;;;;;;;21.92;100.00;101144.00;6235186;28;20099;-93
2023/08/11 10:08:02;;;;;;;2.40;1.50;;;;;;;21.98;100.00;101136.38;6230327;28;20125;-92
2023/08/11 10:11:04;;;;;;;3.63;1.45;;;;;;;22.05;100.00;101139.91;6225566;28;20096;-93
2023/08/11 10:14:08;;;;;;;2.85;1.52;;;;;;;22.13;100.00;101145.91;6242065;28;20038;-93
2023/08/11 10:17:12;;;;;;;2.88;1.73;;;;;;;22.24;100.00;101141.22;6234931;28;20053;-93
2023/08/11 10:20:16;;;;;;;3.25;1.70;;;;;;;22.32;100.00;101136.66;6240402;28;20080;-93
2023/08/11 10:23:19;;;;;;;3.65;1.33;;;;;;;22.39;100.00;101139.38;6233572;28;20041;-93
2023/08/11 10:26:23;;;;;;;3.70;2.00;;;;;;;22.43;100.00;101130.09;6222294;28;20046;-93
2023/08/11 10:29:25;;;;;;;4.07;1.60;;;;;;;22.57;100.00;101134.53;6237244;28;20160;-93
2023/08/11 10:32:35;;;;;;;2.83;1.55;;;;;;;22.66;100.00;101127.34;6239729;28;20140;-92
2023/08/11 10:35:45;;;;;;;3.88;1.52;;;;;;;22.76;100.00;101130.50;6227782;28;20038;-93
2023/08/11 10:38:59;;;;;;;2.58;1.40;;;;;;;22.88;100.00;101135.25;6224139;28;20453;-93
2023/08/11 10:42:04;;;;;;;1.90;1.45;;;;;;;22.99;100.00;101132.97;6225023;28;20042;-93
2023/08/11 10:45:11;;;;;;;2.08;1.30;;;;;;;23.09;100.00;101135.31;6229038;28;20076;-93
2023/08/11 10:48:13;;;;;;;2.40;1.48;;;;;;;23.24;100.00;101139.72;6232757;28;20041;-94
2023/08/11 10:51:32;;;;;;;3.40;2.03;;;;;;;23.30;100.00;101131.84;6241019;28;20283;-93
2023/08/11 10:54:34;;;;;;;4.78;1.83;;;;;;;23.34;100.00;101137.56;6241149;28;20407;-94
2023/08/11 10:57:36;;;;;;;2.80;1.70;;;;;;;23.37;100.00;101124.78;6237937;28;20056;-92
2023/08/11 11:00:40;;;;;;;3.78;1.50;;;;;;;23.45;100.00;101123.81;6226428;28;20085;-92
2023/08/11 11:03:42;;;;;;;2.38;1.75;;;;;;;23.47;100.00;101121.00;6230616;28;20042;-92
2023/08/11 11:06:46;;;;;;;4.00;1.73;;;;;;;23.50;100.00;101118.78;6238898;28;20041;-92
2023/08/11 11:09:50;;;;;;;2.15;1.55;;;;;;;23.55;100.00;101118.22;6239811;28;20057;-93
2023/08/11 11:12:52;;;;;;;2.95;1.95;;;;;;;23.65;100.00;101108.13;6225787;28;20072;-93
2023/08/11 11:15:54;;;;;;;1.98;1.67;;;;;;;23.77;100.00;101108.44;6250496;28;20048;-92
2023/08/11 11:18:58;;;;;;;2.55;1.83;;;;;;;23.84;100.00;101106.66;6240334;28;20049;-92
2023/08/11 11:22:00;;;;;;;3.63;1.88;;;;;;;23.91;100.00;101112.78;6236477;28;20059;-93
2023/08/11 11:25:03;;;;;;;4.57;1.95;;;;;;;24.11;100.00;101109.44;6230708;28;20384;-93
2023/08/11 11:28:05;;;;;;;3.75;1.95;;;;;;;24.11;100.00;101107.63;6228486;28;20049;-92
2023/08/11 11:31:06;;;;;;;3.67;1.88;;;;;;;24.18;100.00;101105.00;6231678;28;20492;-92
2023/08/11 11:34:09;;;;;;;3.58;1.92;;;;;;;24.29;100.00;101104.44;6224367;28;20451;-92
2023/08/11 11:37:11;;;;;;;2.40;1.70;;;;;;;24.39;100.00;101098.75;6223774;28;20060;-92
2023/08/11 11:40:13;;;;;;;3.13;2.00;;;;;;;24.53;100.00;101099.66;6229164;28;20179;-92
2023/08/11 11:43:16;;;;;;;4.25;1.67;;;;;;;24.56;100.00;101094.78;6238895;28;20045;-88
2023/08/11 11:46:21;;;;;;;2.35;1.80;;;;;;;24.70;100.00;101093.81;6234703;28;20684;-88
2023/08/11 11:49:23;;;;;;;3.72;2.10;;;;;;;24.83;100.00;101105.44;6238354;28;20752;-92
2023/08/11 11:52:32;;;;;;;1.70;1.60;;;;;;;24.92;100.00;101096.28;6229018;28;20673;-92
2023/08/11 11:55:46;;;;;;;2.65;2.00;;;;;;;25.04;100.00;101085.88;6232258;28;20102;-91
2023/08/11 11:58:51;;;;;;;2.72;1.75;;;;;;;25.13;100.00;101085.50;6236963;28;20045;-91
2023/08/11 12:01:58;;;;;;;2.85;1.80;;;;;;;25.29;100.00;101075.53;6232967;28;20041;-91
2023/08/11 12:05:00;;;;;;;6.20;1.70;;;;;;;25.50;100.00;101080.59;6238149;28;20077;-91
2023/08/11 12:08:25;;;;;;;2.75;1.40;;;;;;;25.71;100.00;101086.69;6236061;28;20068;-91
2023/08/11 12:11:27;;;;;;;2.70;1.77;;;;;;;25.92;100.00;101091.75;6234107;28;20081;-92
2023/08/11 12:14:30;;;;;;;2.08;1.73;;;;;;;25.99;100.00;101081.94;6227590;28;20052;-92
2023/08/11 12:17:36;;;;;;;4.00;1.90;;;;;;;26.14;100.00;101081.69;6227272;28;20184;-92
2023/08/11 12:20:38;;;;;;;3.42;1.75;;;;;;;26.33;100.00;101084.44;6237587;28;20111;-92
2023/08/11 12:23:40;;;;;;;3.50;2.10;;;;;;;26.46;100.00;101084.41;6220737;28;20496;-92
2023/08/11 12:26:42;;;;;;;3.03;1.77;;;;;;;26.58;100.00;101085.38;6233930;28;20110;-92
2023/08/11 12:29:43;;;;;;;3.05;1.67;;;;;;;26.80;100.00;101077.88;6222805;28;20041;-92
2023/08/11 12:32:45;;;;;;;3.50;1.70;;;;;;;27.02;100.00;101066.88;6221921;28;20068;-91
2023/08/11 12:35:48;;;;;;;2.17;1.70;;;;;;;27.21;100.00;101073.91;6205665;28;20049;-92
2023/08/11 12:38:50;;;;;;;3.38;1.45;;;;;;;27.25;100.00;101072.44;6213586;28;20208;-91
2023/08/11 12:41:52;;;;;;;4.57;1.63;;;;;;;27.43;100.00;101057.56;6213800;28;20504;-92
2023/08/11 12:44:54;;;;;;;3.63;1.50;;;;;;;27.55;100.00;101053.13;6218662;28;20065;-92
2023/08/11 12:47:56;;;;;;;2.28;1.63;;;;;;;27.74;100.00;101064.59;6218314;28;20037;-92
2023/08/11 12:50:58;;;;;;;7.30;1.90;;;;;;;27.89;100.00;101064.25;6218698;28;20042;-92
2023/08/11 12:54:00;;;;;;;3.22;1.45;;;;;;;28.00;100.00;101062.66;6220669;28;20041;-92
2023/08/11 12:57:02;;;;;;;1.63;1.30;;;;;;;28.10;100.00;101063.78;6226637;28;20045;-92
2023/08/11 13:00:05;;;;;;;1.50;1.20;;;;;;;28.20;100.00;101051.75;6217420;28;20061;-91
2023/08/11 13:03:07;;;;;;;4.72;1.58;;;;;;;28.35;100.00;101050.34;6226623;28;20056;-92
2023/08/11 13:06:09;;;;;;;2.45;1.30;;;;;;;28.48;100.00;101051.22;6214062;28;20502;-91
2023/08/11 13:09:11;;;;;;;2.67;1.60;;;;;;;28.58;100.00;101050.66;6215751;28;20041;-92
2023/08/11 13:12:14;;;;;;;4.45;2.03;;;;;;;28.72;100.00;101049.41;6218741;28;20038;-92
2023/08/11 13:15:17;;;;;;;1.90;1.50;;;;;;;28.92;100.00;101046.44;6221494;28;20041;-92
2023/08/11 13:18:20;;;;;;;1.75;1.30;;;;;;;29.06;100.00;101047.06;6224095;28;20519;-92
2023/08/11 13:21:23;;;;;;;2.13;1.70;;;;;;;29.14;100.00;101054.69;6222999;28;20063;-91
2023/08/11 13:24:26;;;;;;;2.10;1.40;;;;;;;29.24;100.00;101040.78;6224891;28;20048;-92
2023/08/11 13:27:29;;;;;;;2.20;1.30;;;;;;;29.32;100.00;101040.44;6229828;28;20551;-92
2023/08/11 13:30:32;;;;;;;7.70;2.38;;;;;;;29.38;100.00;101037.66;6219394;28;20415;-91
2023/08/11 13:33:36;;;;;;;3.10;1.42;;;;;;;29.46;100.00;101033.81;6217754;28;20038;-92
2023/08/11 13:36:40;;;;;;;2.53;1.30;;;;;;;29.64;100.00;101024.84;6220593;28;20407;-92
2023/08/11 13:39:44;;;;;;;1.95;1.42;;;;;;;29.75;100.00;101028.56;6213248;28;20073;-91
2023/08/11 13:42:46;;;;;;;1.73;1.45;;;;;;;29.82;100.00;101027.38;6216171;28;20045;-92
2023/08/11 13:45:49;;;;;;;2.80;1.58;;;;;;;29.91;100.00;101017.13;6232221;28;20033;-91
2023/08/11 13:48:51;;;;;;;3.10;1.50;;;;;;;30.08;100.00;101022.53;6217056;28;20128;-92
2023/08/11 13:51:53;;;;;;;2.70;1.70;;;;;;;30.17;100.00;101020.28;6215266;28;20119;-92
2023/08/11 13:54:59;;;;;;;4.70;1.67;;;;;;;30.32;100.00;101014.44;6221515;28;20364;-92
2023/08/11 13:58:01;;;;;;;5.53;1.92;;;;;;;30.35;100.00;101013.94;6230434;28;20042;-92
2023/08/11 14:01:03;;;;;;;2.80;1.58;;;;;;;30.46;100.00;101018.44;6226755;28;20041;-92
2023/08/11 14:04:06;;;;;;;2.58;1.60;;;;;;;30.50;100.00;101016.06;6226614;28;20057;-91